createdAt,value
2022-12-29T00:00:10.867Z,98705.91
2022-12-29T00:02:41.596Z,98690.53
2022-12-29T00:05:08.318Z,98703.50
2022-12-29T00:07:35.380Z,98689.69
2022-12-29T00:10:02.174Z,98662.25
2022-12-29T00:12:48.854Z,98683.78
2022-12-29T00:15:34.230Z,98685.47
2022-12-29T00:18:01.232Z,98667.41
2022-12-29T00:20:46.729Z,98676.09
2022-12-29T00:23:31.989Z,98666.72
2022-12-29T00:26:17.886Z,98671.03
2022-12-29T00:29:03.874Z,98674.47
2022-12-29T00:31:49.391Z,98679.59
2022-12-29T00:34:34.965Z,98670.97
2022-12-29T00:37:03.038Z,98683.13
2022-12-29T00:39:48.252Z,98685.72
2022-12-29T00:42:33.599Z,98677.13
2022-12-29T00:45:00.399Z,98672.84
2022-12-29T00:47:27.183Z,98669.44
2022-12-29T00:49:53.924Z,98685.00
2022-12-29T00:52:22.785Z,98674.72
2022-12-29T00:54:49.553Z,98675.50
2022-12-29T00:57:16.372Z,98675.47
2022-12-29T00:59:46.237Z,98656.56
2022-12-29T01:02:13.187Z,98674.50
2022-12-29T01:04:40.090Z,98672.75
2022-12-29T01:07:07.041Z,98677.78
2022-12-29T01:09:52.682Z,98670.03
2022-12-29T01:12:39.415Z,98672.75
2022-12-29T01:15:07.685Z,98670.09
2022-12-29T01:17:35.087Z,98668.44
2022-12-29T01:20:04.041Z,98672.84
2022-12-29T01:22:30.902Z,98666.81
2022-12-29T01:24:57.722Z,98665.06
2022-12-29T01:27:24.421Z,98648.56
2022-12-29T01:29:51.250Z,98647.63
2022-12-29T01:32:18.182Z,98653.53
2022-12-29T01:34:45.434Z,98663.84
2022-12-29T01:37:12.496Z,98662.09
2022-12-29T01:39:39.414Z,98653.53
2022-12-29T01:42:06.322Z,98656.09
2022-12-29T01:44:53.265Z,98656.09
2022-12-29T01:47:50.389Z,98655.25
2022-12-29T01:50:24.216Z,98640.56
2022-12-29T01:53:19.424Z,98643.97
2022-12-29T01:56:01.316Z,98648.31
2022-12-29T01:58:33.722Z,98620.16
2022-12-29T02:01:01.173Z,98636.50
2022-12-29T02:03:29.933Z,98638.16
2022-12-29T02:06:10.125Z,98634.66
2022-12-29T02:08:39.984Z,98630.38
2022-12-29T02:11:08.141Z,98627.91
2022-12-29T02:13:35.249Z,98628.00
2022-12-29T02:16:26.789Z,98628.91
2022-12-29T02:19:00.432Z,98634.06
2022-12-29T02:21:33.129Z,98619.34
2022-12-29T02:24:27.806Z,98615.88
2022-12-29T02:27:01.628Z,98613.28
2022-12-29T02:30:06.339Z,98600.31
2022-12-29T02:32:50.986Z,98601.06
2022-12-29T02:35:44.037Z,98595.06
2022-12-29T02:38:20.424Z,98592.41
2022-12-29T02:40:55.316Z,98592.41
2022-12-29T02:44:11.693Z,98588.84
2022-12-29T02:46:47.018Z,98603.72
2022-12-29T02:49:21.404Z,98619.53
2022-12-29T02:52:15.715Z,98630.00
2022-12-29T02:54:42.533Z,98618.75
2022-12-29T02:57:22.339Z,98617.06
2022-12-29T02:59:55.278Z,98586.19
2022-12-29T03:02:22.236Z,98613.66
2022-12-29T03:05:22.122Z,98609.38
2022-12-29T03:08:05.487Z,98609.44
2022-12-29T03:10:41.561Z,98615.47
2022-12-29T03:13:55.542Z,98607.72
2022-12-29T03:16:32.883Z,98595.63
2022-12-29T03:19:20.565Z,98608.69
2022-12-29T03:22:20.506Z,98606.84
2022-12-29T03:25:05.959Z,98581.00
2022-12-29T03:27:37.618Z,98583.47
2022-12-29T03:30:07.218Z,98578.16
2022-12-29T03:32:43.350Z,98560.03
2022-12-29T03:35:15.662Z,98578.03
2022-12-29T03:37:48.849Z,98566.94
2022-12-29T03:40:15.729Z,98573.84
2022-12-29T03:42:43.239Z,98576.47
2022-12-29T03:45:10.970Z,98579.19
2022-12-29T03:47:38.467Z,98580.16
2022-12-29T03:50:06.886Z,98552.69
2022-12-29T03:52:38.133Z,98567.22
2022-12-29T03:55:05.467Z,98554.22
2022-12-29T03:57:32.341Z,98563.69
2022-12-29T04:00:03.742Z,98563.75
2022-12-29T04:02:31.181Z,98564.56
2022-12-29T04:04:58.258Z,98568.81
2022-12-29T04:07:25.027Z,98542.22
2022-12-29T04:09:54.132Z,98587.88
2022-12-29T04:12:24.170Z,98591.44
2022-12-29T04:14:51.377Z,98583.66
2022-12-29T04:17:18.494Z,98585.38
2022-12-29T04:19:47.331Z,98588.03
2022-12-29T04:22:14.143Z,98576.88
2022-12-29T04:24:41.198Z,98575.94
2022-12-29T04:27:10.641Z,98574.94
2022-12-29T04:29:55.898Z,98586.91
2022-12-29T04:32:35.321Z,98575.75
2022-12-29T04:35:02.509Z,98586.19
2022-12-29T04:37:29.330Z,98586.22
2022-12-29T04:39:58.304Z,98588.84
2022-12-29T04:42:25.281Z,98586.25
2022-12-29T04:44:52.754Z,98580.09
2022-12-29T04:47:34.541Z,98573.16
2022-12-29T04:50:23.744Z,98589.59
2022-12-29T04:53:15.344Z,98606.94
2022-12-29T04:55:43.260Z,98609.53
2022-12-29T04:58:10.037Z,98596.72
2022-12-29T05:00:37.048Z,98599.25
2022-12-29T05:03:04.050Z,98594.00
2022-12-29T05:05:31.132Z,98579.28
2022-12-29T05:07:58.916Z,98579.28
2022-12-29T05:10:25.899Z,98583.63
2022-12-29T05:12:54.430Z,98575.81
2022-12-29T05:15:21.305Z,98571.47
2022-12-29T05:17:48.124Z,98588.69
2022-12-29T05:20:14.898Z,98592.06
2022-12-29T05:22:42.585Z,98593.78
2022-12-29T05:25:10.100Z,98596.41
2022-12-29T05:27:49.551Z,98587.84
2022-12-29T05:30:39.247Z,98587.88
2022-12-29T05:33:07.676Z,98587.00
2022-12-29T05:35:35.257Z,98574.06
2022-12-29T05:38:06.721Z,98585.31
2022-12-29T05:40:35.260Z,98601.75
2022-12-29T05:43:06.349Z,98613.16
2022-12-29T05:46:02.854Z,98616.63
2022-12-29T05:48:49.948Z,98602.03
2022-12-29T05:51:34.926Z,98567.69
2022-12-29T05:54:01.799Z,98599.50
2022-12-29T05:56:28.778Z,98603.81
2022-12-29T05:58:58.319Z,98613.34
2022-12-29T06:01:25.197Z,98608.28
2022-12-29T06:03:52.220Z,98627.25
2022-12-29T06:06:21.140Z,98616.09
2022-12-29T06:08:48.098Z,98616.91
2022-12-29T06:11:14.936Z,98613.53
2022-12-29T06:13:49.437Z,98613.56
2022-12-29T06:16:17.049Z,98617.00
2022-12-29T06:18:44.434Z,98611.03
2022-12-29T06:21:12.505Z,98601.50
2022-12-29T06:23:39.531Z,98607.53
2022-12-29T06:26:06.484Z,98618.66
2022-12-29T06:28:33.361Z,98615.25
2022-12-29T06:31:00.987Z,98619.38
2022-12-29T06:33:28.402Z,98603.78
2022-12-29T06:35:55.364Z,98614.72
2022-12-29T06:38:22.394Z,98596.63
2022-12-29T06:40:51.154Z,98628.31
2022-12-29T06:43:39.357Z,98636.25
2022-12-29T06:46:17.353Z,98665.75
2022-12-29T06:48:44.364Z,98658.91
2022-12-29T06:51:11.193Z,98648.69
2022-12-29T06:53:38.020Z,98652.97
2022-12-29T06:56:05.322Z,98664.09
2022-12-29T06:58:31.878Z,98657.16
2022-12-29T07:00:59.839Z,98672.66
2022-12-29T07:03:26.932Z,98667.59
2022-12-29T07:05:55.261Z,98663.22
2022-12-29T07:08:21.971Z,98653.69
2022-12-29T07:10:48.734Z,98658.84
2022-12-29T07:13:15.612Z,98666.53
2022-12-29T07:15:42.507Z,98660.44
2022-12-29T07:18:09.302Z,98663.66
2022-12-29T07:20:36.165Z,98652.34
2022-12-29T07:23:03.615Z,98659.03
2022-12-29T07:25:30.768Z,98683.06
2022-12-29T07:27:57.801Z,98663.97
2022-12-29T07:30:24.608Z,98687.41
2022-12-29T07:32:51.392Z,98684.72
2022-12-29T07:35:18.126Z,98675.16
2022-12-29T07:37:45.279Z,98637.34
2022-12-29T07:40:12.426Z,98683.69
2022-12-29T07:42:39.423Z,98692.28
2022-12-29T07:45:10.299Z,98681.66
2022-12-29T07:47:51.486Z,98680.53
2022-12-29T07:50:18.771Z,98692.72
2022-12-29T07:52:48.315Z,98687.38
2022-12-29T07:55:17.396Z,98680.25
2022-12-29T07:57:44.419Z,98675.56
2022-12-29T08:00:12.077Z,98674.94
2022-12-29T08:02:38.888Z,98693.25
2022-12-29T08:05:06.187Z,98709.94
2022-12-29T08:07:32.804Z,98709.13
2022-12-29T08:09:59.638Z,98703.38
2022-12-29T08:12:26.325Z,98702.47
2022-12-29T08:14:53.314Z,98694.56
2022-12-29T08:17:20.081Z,98689.47
2022-12-29T08:19:47.186Z,98686.78
2022-12-29T08:22:15.140Z,98691.97
2022-12-29T08:24:42.385Z,98673.97
2022-12-29T08:27:18.050Z,98686.88
2022-12-29T08:29:47.138Z,98696.22
2022-12-29T08:32:14.287Z,98708.28
2022-12-29T08:34:40.992Z,98703.75
2022-12-29T08:37:07.938Z,98693.19
2022-12-29T08:39:35.380Z,98681.75
2022-12-29T08:42:02.503Z,98709.84
2022-12-29T08:44:29.111Z,98719.16
2022-12-29T08:46:55.893Z,98721.88
2022-12-29T08:49:22.726Z,98709.59
2022-12-29T08:51:49.583Z,98716.56
2022-12-29T08:54:16.295Z,98708.50
2022-12-29T08:56:43.097Z,98693.06
2022-12-29T08:59:09.872Z,98724.53
2022-12-29T09:01:41.556Z,98725.03
2022-12-29T09:04:15.551Z,98717.81
2022-12-29T09:06:43.556Z,98725.53
2022-12-29T09:09:10.532Z,98744.66
2022-12-29T09:11:37.528Z,98742.47
2022-12-29T09:14:04.732Z,98721.66
2022-12-29T09:16:31.851Z,98751.50
2022-12-29T09:18:58.956Z,98750.69
2022-12-29T09:21:25.864Z,98759.63
2022-12-29T09:23:53.480Z,98757.31
2022-12-29T09:26:20.205Z,98748.75
2022-12-29T09:28:48.132Z,98749.84
2022-12-29T09:31:15.286Z,98740.81
2022-12-29T09:33:42.173Z,98739.00
2022-12-29T09:36:09.747Z,98750.63
2022-12-29T09:38:39.589Z,98741.25
2022-12-29T09:41:15.909Z,98732.97
2022-12-29T09:44:10.333Z,98749.88
2022-12-29T09:46:48.957Z,98742.69
2022-12-29T09:49:44.356Z,98752.03
2022-12-29T09:52:22.721Z,98740.47
2022-12-29T09:55:14.294Z,98733.91
2022-12-29T09:58:03.808Z,98736.25
2022-12-29T10:01:08.667Z,98734.97
2022-12-29T10:03:52.718Z,98718.88
2022-12-29T10:06:33.333Z,98722.53
2022-12-29T10:09:01.635Z,98727.69
2022-12-29T10:11:54.035Z,98721.19
2022-12-29T10:14:51.230Z,98725.13
2022-12-29T10:18:02.522Z,98718.91
2022-12-29T10:21:16.700Z,98717.03
2022-12-29T10:23:52.399Z,98708.38
2022-12-29T10:26:23.694Z,98708.38
2022-12-29T10:29:13.517Z,98718.28
2022-12-29T10:31:45.679Z,98720.16
2022-12-29T10:34:35.806Z,98714.91
2022-12-29T10:37:12.586Z,98712.00
2022-12-29T10:39:47.393Z,98712.59
2022-12-29T10:42:27.565Z,98709.84
2022-12-29T10:44:58.448Z,98712.06
2022-12-29T10:47:30.804Z,98700.25
2022-12-29T10:49:59.374Z,98707.97
2022-12-29T10:52:29.635Z,98691.19
2022-12-29T10:55:01.343Z,98702.38
2022-12-29T10:57:34.561Z,98700.44
2022-12-29T11:00:01.465Z,98698.09
2022-12-29T11:02:34.385Z,98703.34
2022-12-29T11:05:08.532Z,98694.09
2022-12-29T11:07:35.650Z,98686.53
2022-12-29T11:10:19.792Z,98696.94
2022-12-29T11:13:20.269Z,98679.59
2022-12-29T11:15:49.323Z,98669.16
2022-12-29T11:18:32.876Z,98674.88
2022-12-29T11:21:03.893Z,98668.56
2022-12-29T11:23:40.748Z,98657.38
2022-12-29T11:26:33.623Z,98653.50
2022-12-29T11:29:30.162Z,98648.41
2022-12-29T11:32:00.151Z,98644.38
2022-12-29T11:34:36.957Z,98651.09
2022-12-29T11:37:13.021Z,98639.22
2022-12-29T11:39:58.502Z,98644.72
2022-12-29T11:42:38.725Z,98634.94
2022-12-29T11:45:14.604Z,98636.81
2022-12-29T11:47:45.061Z,98624.47
2022-12-29T11:50:20.433Z,98639.53
2022-12-29T11:52:49.669Z,98622.66
2022-12-29T11:55:26.563Z,98624.47
2022-12-29T11:57:55.546Z,98624.47
2022-12-29T12:00:26.145Z,98626.81
2022-12-29T12:02:56.377Z,98630.63
2022-12-29T12:05:38.134Z,98623.94
2022-12-29T12:08:32.698Z,98622.25
2022-12-29T12:11:23.330Z,98634.75
2022-12-29T12:13:57.299Z,98634.22
2022-12-29T12:16:42.237Z,98626.13
2022-12-29T12:19:24.587Z,98619.13
2022-12-29T12:22:02.028Z,98619.47
2022-12-29T12:25:00.206Z,98616.66
2022-12-29T12:27:41.069Z,98622.41
2022-12-29T12:30:19.822Z,98621.00
2022-12-29T12:33:05.327Z,98611.94
2022-12-29T12:36:11.205Z,98616.41
2022-12-29T12:39:06.517Z,98615.22
2022-12-29T12:42:14.637Z,98603.53
2022-12-29T12:44:49.339Z,98602.16
2022-12-29T12:47:35.009Z,98598.50
2022-12-29T12:50:26.201Z,98601.72
2022-12-29T12:53:27.850Z,98606.59
2022-12-29T12:56:17.345Z,98612.97
2022-12-29T12:58:57.117Z,98606.91
2022-12-29T13:01:43.257Z,98606.22
2022-12-29T13:04:29.041Z,98606.56
2022-12-29T13:07:22.629Z,98611.19
2022-12-29T13:09:55.399Z,98612.38
2022-12-29T13:12:31.442Z,98605.13
2022-12-29T13:15:23.526Z,98589.19
2022-12-29T13:18:23.424Z,98575.34
2022-12-29T13:20:59.159Z,98595.88
2022-12-29T13:23:32.610Z,98599.19
2022-12-29T13:26:20.582Z,98596.31
2022-12-29T13:28:59.463Z,98587.47
2022-12-29T13:31:39.673Z,98595.00
2022-12-29T13:34:12.280Z,98594.66
2022-12-29T13:36:46.669Z,98585.06
2022-12-29T13:39:34.441Z,98593.75
2022-12-29T13:42:03.846Z,98598.00
2022-12-29T13:44:38.873Z,98589.38
2022-12-29T13:47:30.142Z,98596.75
2022-12-29T13:49:59.955Z,98598.22
2022-12-29T13:52:50.862Z,98587.31
2022-12-29T13:55:39.556Z,98592.31
2022-12-29T13:58:19.075Z,98599.59
2022-12-29T14:00:58.023Z,98598.50
2022-12-29T14:03:44.758Z,98589.28
2022-12-29T14:06:27.665Z,98598.03
2022-12-29T14:08:57.769Z,98589.81
2022-12-29T14:11:40.118Z,98591.97
2022-12-29T14:14:22.054Z,98591.88
2022-12-29T14:16:49.630Z,98584.81
2022-12-29T14:19:22.604Z,98596.56
2022-12-29T14:21:55.410Z,98596.34
2022-12-29T14:24:41.163Z,98580.00
2022-12-29T14:27:10.895Z,98593.44
2022-12-29T14:29:40.260Z,98597.53
2022-12-29T14:32:22.470Z,98593.66
2022-12-29T14:34:52.511Z,98587.63
2022-12-29T14:37:48.826Z,98584.69
2022-12-29T14:40:21.003Z,98590.88
2022-12-29T14:42:48.986Z,98593.41
2022-12-29T14:45:15.798Z,98601.88
2022-12-29T14:47:51.284Z,98602.03
2022-12-29T14:50:22.640Z,98598.06
2022-12-29T14:53:07.554Z,98590.84
2022-12-29T14:55:41.891Z,98605.91
2022-12-29T14:58:39.413Z,98611.31
2022-12-29T15:01:23.310Z,98604.91
2022-12-29T15:03:52.849Z,98607.31
2022-12-29T15:06:23.292Z,98604.97
2022-12-29T15:09:21.764Z,98608.25
2022-12-29T15:11:55.127Z,98601.97
2022-12-29T15:14:40.523Z,98605.47
2022-12-29T15:17:24.627Z,98615.22
2022-12-29T15:19:51.425Z,98578.56
2022-12-29T15:22:18.513Z,98606.72
2022-12-29T15:24:45.353Z,98608.34
2022-12-29T15:27:16.520Z,98614.50
2022-12-29T15:29:46.778Z,98615.25
2022-12-29T15:32:25.595Z,98613.19
2022-12-29T15:35:01.098Z,98623.41
2022-12-29T15:37:36.965Z,98625.38
2022-12-29T15:40:04.710Z,98618.84
2022-12-29T15:42:56.952Z,98621.63
2022-12-29T15:45:31.103Z,98621.56
2022-12-29T15:47:59.876Z,98619.13
2022-12-29T15:50:33.027Z,98620.50
2022-12-29T15:53:00.797Z,98621.13
2022-12-29T15:55:41.345Z,98618.41
2022-12-29T15:58:26.780Z,98609.66
2022-12-29T16:00:58.218Z,98622.91
2022-12-29T16:03:38.581Z,98616.75
2022-12-29T16:06:37.537Z,98617.72
2022-12-29T16:09:15.629Z,98620.34
2022-12-29T16:11:51.881Z,98611.44
2022-12-29T16:14:31.628Z,98629.78
2022-12-29T16:17:05.189Z,98615.22
2022-12-29T16:19:39.288Z,98613.91
2022-12-29T16:22:37.073Z,98600.16
2022-12-29T16:25:17.198Z,98617.47
2022-12-29T16:27:45.223Z,98624.78
2022-12-29T16:30:25.367Z,98623.91
2022-12-29T16:33:05.773Z,98616.56
2022-12-29T16:35:45.688Z,98635.50
2022-12-29T16:38:23.384Z,98625.94
2022-12-29T16:40:56.780Z,98626.31
2022-12-29T16:43:32.097Z,98629.41
2022-12-29T16:46:00.550Z,98633.44
2022-12-29T16:48:31.257Z,98622.19
2022-12-29T16:51:06.861Z,98622.34
2022-12-29T16:53:38.437Z,98615.44
2022-12-29T16:56:20.020Z,98616.22
2022-12-29T16:58:49.448Z,98612.81
2022-12-29T17:01:20.016Z,98613.78
2022-12-29T17:03:54.838Z,98602.22
2022-12-29T17:06:23.297Z,98610.72
2022-12-29T17:08:52.037Z,98599.47
2022-12-29T17:11:59.469Z,98602.91
2022-12-29T17:14:43.227Z,98600.28
2022-12-29T17:17:16.011Z,98606.50
2022-12-29T17:19:54.814Z,98599.47
2022-12-29T17:22:27.722Z,98597.38
2022-12-29T17:24:56.332Z,98595.09
2022-12-29T17:27:27.841Z,98593.50
2022-12-29T17:29:59.685Z,98594.69
2022-12-29T17:32:27.084Z,98593.41
2022-12-29T17:34:53.901Z,98562.41
2022-12-29T17:37:33.862Z,98588.53
2022-12-29T17:40:00.856Z,98586.44
2022-12-29T17:42:27.719Z,98600.91
2022-12-29T17:44:54.479Z,98599.22
2022-12-29T17:47:21.378Z,98595.47
2022-12-29T17:49:48.187Z,98596.72
2022-12-29T17:52:16.623Z,98591.47
2022-12-29T17:54:50.007Z,98582.47
2022-12-29T17:57:17.828Z,98586.13
2022-12-29T17:59:44.683Z,98592.25
2022-12-29T18:02:27.153Z,98598.53
2022-12-29T18:04:54.432Z,98590.84
2022-12-29T18:07:22.170Z,98597.31
2022-12-29T18:09:49.012Z,98584.34
2022-12-29T18:12:39.354Z,98593.06
2022-12-29T18:15:08.455Z,98591.91
2022-12-29T18:17:35.196Z,98584.34
2022-12-29T18:20:01.952Z,98577.84
2022-12-29T18:22:30.163Z,98580.81
2022-12-29T18:24:56.902Z,98582.66
2022-12-29T18:27:23.681Z,98557.25
2022-12-29T18:29:50.489Z,98564.88
2022-12-29T18:32:18.594Z,98565.59
2022-12-29T18:34:46.049Z,98564.91
2022-12-29T18:37:13.707Z,98571.75
2022-12-29T18:39:40.847Z,98562.00
2022-12-29T18:42:07.776Z,98568.78
2022-12-29T18:44:35.052Z,98565.00
2022-12-29T18:47:02.260Z,98563.41
2022-12-29T18:49:29.229Z,98574.56
2022-12-29T18:51:56.241Z,98554.66
2022-12-29T18:54:34.082Z,98563.13
2022-12-29T18:57:00.974Z,98540.56
2022-12-29T18:59:27.786Z,98542.28
2022-12-29T19:01:54.629Z,98551.50
2022-12-29T19:04:22.405Z,98557.22
2022-12-29T19:06:49.681Z,98563.84
2022-12-29T19:09:16.271Z,98576.81
2022-12-29T19:11:47.783Z,98571.00
2022-12-29T19:14:17.614Z,98556.75
2022-12-29T19:16:44.764Z,98561.72
2022-12-29T19:19:14.634Z,98564.72
2022-12-29T19:21:41.582Z,98568.84
2022-12-29T19:24:08.337Z,98582.91
2022-12-29T19:26:37.557Z,98577.53
2022-12-29T19:29:06.714Z,98586.34
2022-12-29T19:31:33.895Z,98571.91
2022-12-29T19:34:01.007Z,98582.59
2022-12-29T19:36:28.196Z,98568.16
2022-12-29T19:38:55.531Z,98589.28
2022-12-29T19:41:22.842Z,98566.91
2022-12-29T19:43:51.721Z,98559.94
2022-12-29T19:46:21.020Z,98572.97
2022-12-29T19:48:48.157Z,98573.09
2022-12-29T19:51:17.224Z,98567.97
2022-12-29T19:53:45.749Z,98536.19
2022-12-29T19:56:13.108Z,98554.28
2022-12-29T19:58:45.254Z,98523.44
2022-12-29T20:01:16.499Z,98539.66
2022-12-29T20:03:43.485Z,98541.50
2022-12-29T20:06:11.080Z,98539.75
2022-12-29T20:08:39.060Z,98548.44
2022-12-29T20:11:08.906Z,98528.59
2022-12-29T20:13:36.363Z,98532.84
2022-12-29T20:16:06.271Z,98544.31
2022-12-29T20:18:35.324Z,98536.56
2022-12-29T20:21:07.294Z,98552.94
2022-12-29T20:23:34.858Z,98544.19
2022-12-29T20:26:01.957Z,98542.34
2022-12-29T20:28:29.489Z,98530.72
2022-12-29T20:30:58.820Z,98532.69
2022-12-29T20:33:26.203Z,98522.00
2022-12-29T20:35:53.300Z,98516.97
2022-12-29T20:38:20.891Z,98514.66
2022-12-29T20:40:47.740Z,98485.88
2022-12-29T20:43:16.344Z,98513.84
2022-12-29T20:45:43.219Z,98512.88
2022-12-29T20:48:10.105Z,98510.25
2022-12-29T20:50:37.090Z,98496.28
2022-12-29T20:53:03.981Z,98499.00
2022-12-29T20:55:30.782Z,98487.78
2022-12-29T21:00:48.229Z,98486.72
2022-12-29T21:03:18.087Z,98484.91
2022-12-29T21:05:48.710Z,98472.91
2022-12-29T21:08:16.905Z,98479.28
2022-12-29T21:10:48.978Z,98480.81
2022-12-29T21:13:17.794Z,98486.94
2022-12-29T21:15:46.011Z,98472.97
2022-12-29T21:18:17.097Z,98474.44
2022-12-29T21:20:54.378Z,98484.91
2022-12-29T21:23:22.421Z,98493.28
2022-12-29T21:25:49.986Z,98498.50
2022-12-29T21:28:19.425Z,98500.34
2022-12-29T21:30:49.702Z,98516.81
2022-12-29T21:33:18.680Z,98514.31
2022-12-29T21:35:47.056Z,98500.50
2022-12-29T21:38:14.439Z,98494.94
2022-12-29T21:40:41.423Z,98506.88
2022-12-29T21:43:08.203Z,98514.97
2022-12-29T21:45:35.120Z,98518.09
2022-12-29T21:48:24.231Z,98515.59
2022-12-29T21:51:12.178Z,98519.03
2022-12-29T21:53:42.013Z,98509.28
2022-12-29T21:56:16.608Z,98499.53
2022-12-29T21:59:05.586Z,98504.72
2022-12-29T22:01:54.087Z,98492.59
2022-12-29T22:04:42.048Z,98494.56
2022-12-29T22:07:28.690Z,98492.97
2022-12-29T22:10:13.825Z,98490.47
2022-12-29T22:13:03.472Z,98493.72
2022-12-29T22:15:35.620Z,98489.56
2022-12-29T22:18:03.296Z,98474.84
2022-12-29T22:20:33.348Z,98474.66
2022-12-29T22:23:00.155Z,98471.97
2022-12-29T22:25:26.976Z,98480.81
2022-12-29T22:27:58.971Z,98459.72
2022-12-29T22:30:27.756Z,98473.06
2022-12-29T22:32:54.604Z,98461.75
2022-12-29T22:35:21.384Z,98479.00
2022-12-29T22:37:48.115Z,98484.22
2022-12-29T22:40:14.883Z,98469.63
2022-12-29T22:42:41.639Z,98478.19
2022-12-29T22:45:09.122Z,98479.22
2022-12-29T22:47:36.136Z,98490.34
2022-12-29T22:50:03.639Z,98492.13
2022-12-29T22:52:30.507Z,98494.91
2022-12-29T22:55:01.697Z,98466.34
2022-12-29T22:57:31.965Z,98469.69
2022-12-29T22:59:58.662Z,98454.28
2022-12-29T23:02:25.830Z,98457.97
2022-12-29T23:05:03.622Z,98458.22
2022-12-29T23:07:32.771Z,98442.94
2022-12-29T23:09:59.472Z,98446.06
2022-12-29T23:12:29.322Z,98429.50
2022-12-29T23:14:56.081Z,98424.13
2022-12-29T23:17:22.921Z,98424.78
2022-12-29T23:19:50.488Z,98421.19
2022-12-29T23:22:17.211Z,98428.06
2022-12-29T23:24:43.949Z,98440.97
2022-12-29T23:27:10.654Z,98427.94
2022-12-29T23:29:37.441Z,98408.78
2022-12-29T23:32:04.269Z,98407.13
2022-12-29T23:34:31.014Z,98430.56
2022-12-29T23:36:57.757Z,98432.34
2022-12-29T23:39:24.860Z,98435.09
2022-12-29T23:41:52.370Z,98419.50
2022-12-29T23:44:19.133Z,98391.88
2022-12-29T23:46:45.975Z,98403.47
2022-12-29T23:49:12.867Z,98416.28
2022-12-29T23:51:39.752Z,98408.41
2022-12-29T23:54:06.884Z,98414.34
2022-12-29T23:56:33.714Z,98412.63
2022-12-29T23:59:03.451Z,98417.16
